Time;durP1;ratioP1;P1;durP2;ratioP2;P2;SDS_P1;SDS_P2;PMS_P1;PMS_P2;Temp;Humidity;BMP_temperature;BMP_pressure;BME280_temperature;BME280_humidity;BME280_pressure;Samples;Min_cycle;Max_cycle;Signal;HPM_P1;HPM_P2
2023/01/08 05:31:00;;;;;;;3.58;1.48;;;8.20;83.80;;;;;;5601922;23;20121;-74
2023/01/08 05:33:26;;;;;;;6.20;2.10;;;8.20;83.70;;;;;;4902131;29;20028;-74
2023/01/08 05:35:52;;;;;;;9.75;2.00;;;8.30;84.00;;;;;;4885921;29;20033;-74
2023/01/08 05:38:17;;;;;;;4.65;1.30;;;8.40;83.70;;;;;;4882685;29;20084;-74
2023/01/08 05:40:43;;;;;;;4.05;1.25;;;8.40;83.60;;;;;;4866633;29;20029;-74
2023/01/08 05:43:09;;;;;;;9.73;2.30;;;8.30;83.40;;;;;;4867090;29;20501;-74
2023/01/08 05:45:34;;;;;;;9.65;1.35;;;8.30;83.60;;;;;;4867187;29;20032;-75
2023/01/08 05:48:05;;;;;;;13.88;1.60;;;8.30;83.60;;;;;;4883393;29;20340;-74
2023/01/08 05:50:31;;;;;;;5.80;1.58;;;8.20;83.70;;;;;;4881656;29;20456;-75
2023/01/08 05:52:59;;;;;;;1.73;1.02;;;8.10;83.90;;;;;;4883635;29;20136;-74
2023/01/08 05:55:25;;;;;;;7.00;1.52;;;8.20;84.30;;;;;;4877321;29;20049;-74
2023/01/08 05:57:50;;;;;;;4.90;1.50;;;8.20;83.80;;;;;;4883427;29;20043;-74
2023/01/08 06:00:16;;;;;;;3.53;1.85;;;8.20;83.70;;;;;;4882796;29;20033;-74
2023/01/08 06:02:46;;;;;;;4.47;1.20;;;8.20;83.90;;;;;;4879725;29;20051;-74
2023/01/08 06:05:12;;;;;;;10.32;1.55;;;8.30;83.60;;;;;;4911926;29;20040;-74
2023/01/08 06:07:38;;;;;;;5.38;1.75;;;8.30;83.00;;;;;;4891039;29;20176;-75
2023/01/08 06:10:09;;;;;;;4.32;1.27;;;8.20;83.00;;;;;;4881992;29;20039;-74
2023/01/08 06:12:34;;;;;;;7.30;1.70;;;8.20;83.50;;;;;;4918620;29;20087;-77
2023/01/08 06:15:00;;;;;;;7.78;1.85;;;8.20;83.60;;;;;;4921107;29;20032;-74
2023/01/08 06:17:25;;;;;;;6.55;1.40;;;8.10;83.50;;;;;;4898758;29;20032;-74
2023/01/08 06:19:51;;;;;;;6.57;1.42;;;8.00;83.60;;;;;;4892858;29;20085;-77
2023/01/08 06:22:17;;;;;;;5.53;1.23;;;7.90;84.00;;;;;;4901081;29;20385;-77
2023/01/08 06:24:42;;;;;;;6.72;1.83;;;7.90;83.70;;;;;;4902051;29;20487;-77
2023/01/08 06:27:08;;;;;;;5.30;1.50;;;8.00;84.10;;;;;;4894495;29;20484;-77
2023/01/08 06:29:34;;;;;;;1.80;1.10;;;7.90;84.00;;;;;;4866576;29;20033;-76
2023/01/08 06:31:59;;;;;;;4.70;1.48;;;8.00;84.20;;;;;;4896493;29;20563;-77
2023/01/08 06:34:25;;;;;;;4.03;1.25;;;8.10;84.10;;;;;;4901806;29;20079;-77
2023/01/08 06:36:50;;;;;;;5.25;1.83;;;8.20;83.90;;;;;;4908918;29;20020;-77
2023/01/08 06:39:16;;;;;;;9.75;1.88;;;8.30;83.50;;;;;;4910158;29;20123;-77
2023/01/08 06:41:43;;;;;;;4.10;1.70;;;8.30;83.60;;;;;;4884922;29;20043;-77
2023/01/08 06:44:18;;;;;;;5.72;1.48;;;8.30;83.50;;;;;;4901297;29;20024;-76
2023/01/08 06:46:44;;;;;;;1.65;1.30;;;8.40;83.50;;;;;;4901826;29;20024;-77
2023/01/08 06:49:10;;;;;;;8.02;1.50;;;8.40;83.40;;;;;;4893052;29;20060;-77
2023/01/08 06:51:35;;;;;;;6.03;1.38;;;8.40;83.30;;;;;;4883159;29;20112;-77
2023/01/08 06:54:01;;;;;;;7.30;1.77;;;8.30;83.30;;;;;;4871062;29;20043;-77
2023/01/08 06:56:27;;;;;;;10.25;1.77;;;8.30;83.40;;;;;;4901514;29;20495;-76
2023/01/08 06:58:53;;;;;;;7.78;2.40;;;8.20;83.50;;;;;;4901245;29;20067;-77
2023/01/08 07:01:21;;;;;;;8.07;2.40;;;8.10;83.70;;;;;;4898160;29;20025;-77
2023/01/08 07:03:47;;;;;;;5.78;3.53;;;8.00;83.60;;;;;;4865917;29;20029;-77
2023/01/08 07:06:19;;;;;;;13.05;4.07;;;8.00;84.00;;;;;;4882834;29;20035;-76
2023/01/08 07:08:45;;;;;;;6.53;2.65;;;8.00;84.00;;;;;;4885646;29;20411;-77
2023/01/08 07:11:12;;;;;;;5.00;2.72;;;8.00;84.20;;;;;;4905073;29;20032;-77
2023/01/08 07:13:38;;;;;;;16.20;3.10;;;8.00;84.40;;;;;;4901819;29;20032;-77
2023/01/08 07:16:08;;;;;;;13.20;2.35;;;8.00;84.30;;;;;;4900891;29;20043;-77
2023/01/08 07:18:34;;;;;;;4.85;1.45;;;8.00;84.10;;;;;;4900219;29;20032;-78
2023/01/08 07:21:01;;;;;;;4.15;1.50;;;7.90;84.40;;;;;;4885516;29;20025;-78
2023/01/08 07:23:27;;;;;;;4.32;1.52;;;7.90;84.80;;;;;;4882128;29;20088;-78
2023/01/08 07:25:52;;;;;;;4.82;1.33;;;7.90;84.70;;;;;;4882238;29;20037;-80
2023/01/08 07:28:18;;;;;;;12.52;1.67;;;8.00;84.90;;;;;;4882293;29;20104;-77
2023/01/08 07:30:44;;;;;;;8.02;1.98;;;8.00;84.40;;;;;;4865105;29;20049;-76
2023/01/08 07:33:09;;;;;;;4.95;1.42;;;8.00;84.60;;;;;;4899782;29;20040;-77
2023/01/08 07:35:37;;;;;;;4.95;1.90;;;8.00;85.00;;;;;;4879800;29;20037;-76
2023/01/08 07:38:03;;;;;;;6.28;1.23;;;7.90;85.40;;;;;;4882054;29;20035;-77
2023/01/08 07:40:30;;;;;;;3.60;1.52;;;8.00;85.30;;;;;;4882236;29;20036;-77
2023/01/08 07:42:58;;;;;;;3.67;1.33;;;8.10;85.10;;;;;;4882033;29;20021;-75
2023/01/08 07:45:24;;;;;;;7.75;1.45;;;8.20;84.80;;;;;;4881603;29;20037;-75
2023/01/08 07:47:49;;;;;;;4.20;1.00;;;8.30;84.50;;;;;;4881919;29;20544;-76
2023/01/08 07:50:15;;;;;;;8.07;2.00;;;8.40;84.40;;;;;;4864958;29;20037;-76
2023/01/08 07:52:40;;;;;;;9.50;2.70;;;8.40;84.40;;;;;;4873695;29;20056;-75
2023/01/08 07:55:06;;;;;;;3.72;1.15;;;8.40;84.50;;;;;;4895065;29;20036;-76
2023/01/08 07:57:32;;;;;;;2.13;1.05;;;8.50;84.60;;;;;;4898903;29;20060;-76
2023/01/08 07:59:58;;;;;;;7.28;1.60;;;8.50;84.70;;;;;;4881617;29;20484;-76
2023/01/08 08:02:23;;;;;;;3.92;1.67;;;8.50;84.80;;;;;;4893250;29;20092;-76
2023/01/08 08:04:49;;;;;;;3.22;1.85;;;8.50;84.80;;;;;;4900358;29;20550;-74
2023/01/08 08:07:14;;;;;;;5.80;2.35;;;8.60;84.60;;;;;;4897033;29;20092;-77
2023/01/08 08:09:40;;;;;;;7.10;2.13;;;8.60;84.60;;;;;;4881537;29;20570;-77
2023/01/08 08:12:06;;;;;;;6.82;1.95;;;8.60;84.70;;;;;;4908425;29;20666;-76
2023/01/08 08:14:32;;;;;;;3.38;1.75;;;8.60;84.60;;;;;;4910311;29;20402;-78
2023/01/08 08:16:57;;;;;;;7.03;1.48;;;8.50;84.70;;;;;;4888573;29;20139;-76
2023/01/08 08:19:23;;;;;;;8.82;2.58;;;8.60;84.70;;;;;;4916812;29;20092;-76
2023/01/08 08:21:48;;;;;;;6.95;1.52;;;8.50;84.50;;;;;;4893519;29;20381;-76
2023/01/08 08:24:15;;;;;;;6.97;1.58;;;8.60;84.70;;;;;;4899689;29;20037;-75
2023/01/08 08:26:40;;;;;;;6.45;1.58;;;8.60;84.50;;;;;;4878728;29;20029;-77
2023/01/08 08:29:06;;;;;;;5.13;1.48;;;8.60;84.70;;;;;;4899255;29;20554;-78
2023/01/08 08:31:32;;;;;;;6.18;1.80;;;8.70;84.60;;;;;;4905128;29;20135;-77
2023/01/08 08:33:57;;;;;;;12.27;2.22;;;8.70;84.50;;;;;;4891614;29;20148;-77
2023/01/08 08:36:29;;;;;;;9.05;1.80;;;8.70;84.30;;;;;;4895634;29;20384;-77
2023/01/08 08:38:55;;;;;;;6.18;1.75;;;8.80;84.20;;;;;;4902619;29;20136;-77
2023/01/08 08:41:21;;;;;;;8.70;1.98;;;8.70;84.00;;;;;;4889293;29;20056;-77
2023/01/08 08:43:48;;;;;;;10.93;2.20;;;8.70;84.10;;;;;;4892161;29;20391;-77
2023/01/08 08:46:14;;;;;;;3.28;1.80;;;8.70;84.30;;;;;;4906102;29;20051;-77
2023/01/08 08:48:39;;;;;;;6.90;1.70;;;8.60;83.90;;;;;;4910940;29;20028;-77
2023/01/08 08:51:05;;;;;;;4.93;1.42;;;8.60;83.90;;;;;;4893282;29;20116;-77
2023/01/08 08:53:31;;;;;;;9.90;1.73;;;8.60;84.30;;;;;;4907010;29;20507;-77
2023/01/08 08:55:59;;;;;;;10.30;1.73;;;8.60;84.30;;;;;;4893794;29;20035;-77
2023/01/08 08:58:25;;;;;;;7.72;1.80;;;8.50;84.20;;;;;;4906602;29;20040;-77
2023/01/08 09:00:51;;;;;;;8.38;1.73;;;8.50;84.30;;;;;;4903483;29;20032;-77
2023/01/08 09:03:16;;;;;;;5.15;1.73;;;8.50;84.30;;;;;;4900057;29;20025;-77
2023/01/08 09:05:42;;;;;;;5.38;1.65;;;8.40;84.30;;;;;;4901836;29;20028;-77
2023/01/08 09:08:09;;;;;;;4.85;1.85;;;8.60;84.30;;;;;;4900196;29;20769;-77
2023/01/08 09:10:41;;;;;;;7.00;2.08;;;8.60;84.20;;;;;;4894946;29;20036;-78
2023/01/08 09:13:07;;;;;;;4.57;1.38;;;8.70;84.00;;;;;;4901477;29;20035;-81
2023/01/08 09:15:32;;;;;;;3.90;1.63;;;8.70;84.40;;;;;;4901308;29;20028;-77
2023/01/08 09:17:58;;;;;;;6.18;1.67;;;8.70;84.40;;;;;;4902740;29;20123;-76
2023/01/08 09:20:25;;;;;;;4.10;1.60;;;8.80;84.40;;;;;;4900177;29;20025;-77
2023/01/08 09:22:51;;;;;;;7.85;1.63;;;8.90;84.20;;;;;;4899404;29;20056;-77
2023/01/08 09:25:17;;;;;;;3.70;1.73;;;8.90;84.40;;;;;;4887183;29;20028;-77
2023/01/08 09:27:43;;;;;;;10.07;2.22;;;9.10;84.30;;;;;;4880859;29;20040;-77
2023/01/08 09:30:09;;;;;;;5.25;1.83;;;9.20;84.20;;;;;;4882501;29;20024;-77
2023/01/08 09:32:35;;;;;;;9.20;1.63;;;9.50;83.80;;;;;;4883185;29;20139;-77
2023/01/08 09:35:00;;;;;;;5.07;1.55;;;9.60;83.40;;;;;;4882182;29;20075;-77
2023/01/08 09:37:26;;;;;;;7.97;1.67;;;9.50;83.50;;;;;;4901075;29;20029;-78
2023/01/08 09:39:52;;;;;;;4.85;1.63;;;9.60;83.60;;;;;;4882410;29;20088;-75
2023/01/08 09:42:23;;;;;;;9.18;2.47;;;9.50;83.80;;;;;;4884546;29;20032;-77
2023/01/08 09:44:52;;;;;;;4.00;1.88;;;9.60;83.90;;;;;;4877197;29;20032;-78
2023/01/08 09:47:36;;;;;;;5.50;1.75;;;9.60;84.10;;;;;;4877393;29;20028;-78
2023/01/08 09:50:06;;;;;;;2.55;1.45;;;9.60;84.10;;;;;;4892531;29;20032;-78
2023/01/08 09:52:32;;;;;;;12.27;1.90;;;9.80;84.20;;;;;;4880463;29;20024;-78
2023/01/08 09:54:59;;;;;;;2.30;1.42;;;9.80;84.30;;;;;;4890821;29;20495;-78
2023/01/08 09:57:26;;;;;;;11.93;1.95;;;9.90;84.00;;;;;;4877165;29;20037;-78
2023/01/08 09:59:52;;;;;;;5.75;1.83;;;10.00;83.90;;;;;;4891979;29;20025;-78
2023/01/08 10:02:23;;;;;;;8.30;1.58;;;10.20;83.70;;;;;;4856104;29;20048;-78
2023/01/08 10:04:54;;;;;;;11.48;1.77;;;10.30;83.30;;;;;;4890546;29;20029;-78
2023/01/08 10:07:24;;;;;;;7.05;1.67;;;10.40;83.10;;;;;;4892690;29;20033;-78
2023/01/08 10:09:54;;;;;;;8.18;2.60;;;10.40;82.80;;;;;;4893165;29;20438;-77
2023/01/08 10:12:29;;;;;;;11.82;2.00;;;10.50;82.90;;;;;;4882005;29;20044;-77
2023/01/08 10:14:58;;;;;;;5.65;1.73;;;10.50;82.60;;;;;;4894736;29;20032;-77
2023/01/08 10:17:44;;;;;;;5.55;1.45;;;10.50;82.70;;;;;;4897575;29;20112;-79
2023/01/08 10:20:18;;;;;;;6.47;1.77;;;10.60;82.50;;;;;;4898355;29;20071;-77
2023/01/08 10:22:46;;;;;;;6.75;1.65;;;10.60;82.60;;;;;;4893153;29;20092;-78
2023/01/08 10:25:16;;;;;;;12.23;1.40;;;10.60;82.30;;;;;;4899184;29;20404;-77
2023/01/08 10:27:52;;;;;;;6.55;1.65;;;10.60;82.30;;;;;;4879778;29;20059;-75
2023/01/08 10:30:30;;;;;;;5.05;1.45;;;10.50;82.30;;;;;;4900127;29;20060;-82
2023/01/08 10:33:02;;;;;;;2.95;1.42;;;10.60;82.30;;;;;;4899462;29;20040;-78
2023/01/08 10:35:38;;;;;;;6.75;1.42;;;10.70;82.30;;;;;;4888509;29;20119;-78
2023/01/08 10:38:04;;;;;;;5.43;1.63;;;10.80;82.00;;;;;;4896988;29;20040;-77
2023/01/08 10:40:41;;;;;;;4.80;1.65;;;10.90;81.70;;;;;;4900896;29;20024;-77
2023/01/08 10:43:23;;;;;;;3.15;1.33;;;11.00;81.40;;;;;;4857744;29;20084;-77
2023/01/08 10:46:02;;;;;;;8.52;2.05;;;11.10;80.90;;;;;;4887179;29;20579;-77
2023/01/08 10:48:38;;;;;;;4.22;1.35;;;11.10;80.60;;;;;;4883730;29;20036;-78
2023/01/08 10:51:12;;;;;;;7.55;1.42;;;11.10;80.30;;;;;;4894479;29;20775;-77
2023/01/08 10:53:39;;;;;;;11.88;2.13;;;11.00;80.10;;;;;;4897829;29;20040;-77
2023/01/08 10:56:06;;;;;;;7.72;1.75;;;11.00;80.40;;;;;;4892476;29;20116;-77
2023/01/08 10:58:41;;;;;;;8.00;2.08;;;11.10;80.10;;;;;;4899016;29;20039;-78
2023/01/08 11:01:28;;;;;;;7.85;1.77;;;11.10;80.00;;;;;;4881129;29;20400;-77
2023/01/08 11:04:05;;;;;;;4.43;1.20;;;11.10;79.70;;;;;;4899614;29;20025;-77
2023/01/08 11:06:45;;;;;;;7.80;1.60;;;11.10;79.50;;;;;;4881642;29;20119;-77
2023/01/08 11:09:24;;;;;;;6.70;1.42;;;11.10;79.70;;;;;;4899516;29;20032;-77
2023/01/08 11:11:50;;;;;;;4.03;1.20;;;11.20;79.20;;;;;;4883240;29;20041;-77
2023/01/08 11:14:30;;;;;;;5.32;1.33;;;11.20;78.40;;;;;;4898714;29;20459;-77
2023/01/08 11:16:57;;;;;;;5.65;1.05;;;11.20;78.30;;;;;;4881635;29;20035;-78
2023/01/08 11:19:28;;;;;;;6.65;1.45;;;11.20;78.80;;;;;;4898600;29;20040;-80
2023/01/08 11:22:17;;;;;;;3.75;1.25;;;11.20;78.90;;;;;;4882691;29;20040;-79
2023/01/08 11:24:45;;;;;;;13.02;2.00;;;11.20;79.00;;;;;;4898104;29;20032;-77
2023/01/08 11:27:19;;;;;;;2.83;1.40;;;11.30;78.60;;;;;;4874176;29;20150;-78
2023/01/08 11:30:00;;;;;;;4.70;2.10;;;11.30;79.00;;;;;;4890706;29;20107;-77
2023/01/08 11:32:50;;;;;;;10.43;1.55;;;11.20;79.00;;;;;;4880166;29;20086;-77
2023/01/08 11:35:34;;;;;;;4.45;1.30;;;11.20;79.40;;;;;;4881851;29;20043;-77
2023/01/08 11:38:01;;;;;;;3.58;1.70;;;11.20;79.50;;;;;;4865267;29;20104;-77
2023/01/08 11:40:35;;;;;;;4.20;1.50;;;11.20;78.90;;;;;;4896709;29;20021;-77
2023/01/08 11:43:34;;;;;;;6.07;1.00;;;11.30;79.20;;;;;;4875325;29;20115;-78
2023/01/08 11:46:11;;;;;;;5.45;1.88;;;11.50;79.50;;;;;;4892592;29;20182;-78
2023/01/08 11:48:52;;;;;;;6.28;1.50;;;11.70;78.80;;;;;;4898137;29;20036;-81
2023/01/08 11:51:34;;;;;;;3.03;1.17;;;11.90;78.50;;;;;;4865957;29;20037;-80
2023/01/08 11:54:05;;;;;;;3.90;1.27;;;12.30;78.10;;;;;;4876430;29;20029;-81
2023/01/08 11:56:34;;;;;;;7.55;1.52;;;12.50;77.80;;;;;;4891782;29;20120;-80
2023/01/08 11:59:41;;;;;;;5.68;1.00;;;12.60;76.80;;;;;;4898919;29;20036;-79
2023/01/08 12:02:28;;;;;;;5.25;1.23;;;12.50;76.00;;;;;;4880119;29;20079;-81
2023/01/08 12:05:29;;;;;;;5.18;1.33;;;12.30;76.20;;;;;;4883281;29;20033;-79
2023/01/08 12:08:32;;;;;;;4.57;1.55;;;12.10;77.00;;;;;;4870422;29;20048;-81
2023/01/08 12:11:08;;;;;;;6.05;1.50;;;12.10;77.00;;;;;;4897101;29;20074;-83
2023/01/08 12:14:21;;;;;;;4.28;1.20;;;12.00;77.90;;;;;;4881050;29;20483;-82
2023/01/08 12:16:53;;;;;;;8.23;1.48;;;12.10;77.90;;;;;;4829318;29;20076;-79
2023/01/08 12:19:24;;;;;;;5.55;1.73;;;12.10;77.90;;;;;;4896790;29;20112;-82
2023/01/08 12:22:20;;;;;;;9.30;1.83;;;12.20;78.00;;;;;;4874413;29;20028;-89
2023/01/08 12:24:57;;;;;;;17.63;5.57;;;12.40;77.40;;;;;;4878878;29;20036;-83
2023/01/08 12:27:32;;;;;;;4.13;1.50;;;12.50;77.20;;;;;;4898898;29;20033;-80
2023/01/08 12:30:20;;;;;;;6.25;1.35;;;12.50;76.50;;;;;;4899907;29;20024;-79
2023/01/08 12:32:54;;;;;;;4.47;1.42;;;12.50;76.50;;;;;;4873034;29;20048;-85
2023/01/08 12:35:46;;;;;;;3.58;1.55;;;12.50;76.70;;;;;;4879547;29;20325;-89
2023/01/08 12:38:32;;;;;;;11.15;1.35;;;12.30;76.70;;;;;;4881267;29;20373;-92
2023/01/08 12:41:17;;;;;;;8.45;1.55;;;12.40;77.10;;;;;;4874164;29;20031;-84
2023/01/08 12:43:54;;;;;;;10.00;1.58;;;12.50;77.30;;;;;;4917768;29;20043;-85
2023/01/08 12:46:23;;;;;;;6.82;1.35;;;12.50;77.00;;;;;;4882890;29;20084;-84
2023/01/08 12:48:51;;;;;;;5.88;1.55;;;12.50;76.70;;;;;;4897368;29;21254;-91
2023/01/08 12:51:30;;;;;;;5.05;1.25;;;12.70;77.50;;;;;;4880718;29;20056;-86
2023/01/08 12:54:20;;;;;;;7.38;1.40;;;12.80;78.30;;;;;;4891707;29;20048;-80
2023/01/08 12:56:55;;;;;;;7.75;1.52;;;12.80;78.50;;;;;;4896942;29;20084;-77
2023/01/08 12:59:53;;;;;;;6.40;1.23;;;12.80;78.30;;;;;;4878815;29;20041;-80
2023/01/08 13:02:56;;;;;;;14.35;2.30;;;12.80;78.10;;;;;;4888675;29;20058;-84
2023/01/08 13:05:22;;;;;;;5.85;1.33;;;12.80;78.30;;;;;;4897068;29;20089;-80
2023/01/08 13:07:57;;;;;;;9.85;2.40;;;12.80;77.80;;;;;;4896241;29;20029;-85
2023/01/08 13:10:38;;;;;;;4.93;1.23;;;12.70;78.30;;;;;;4870647;29;20059;-82
2023/01/08 13:13:07;;;;;;;7.97;1.65;;;12.70;78.70;;;;;;4886423;29;20029;-80
2023/01/08 13:15:33;;;;;;;5.60;1.38;;;12.60;78.90;;;;;;4895621;29;20488;-81
2023/01/08 13:18:16;;;;;;;6.93;1.65;;;12.60;79.50;;;;;;4894514;29;20084;-79
2023/01/08 13:20:42;;;;;;;7.47;1.40;;;12.50;79.70;;;;;;4896773;29;20526;-79
2023/01/08 13:23:23;;;;;;;6.50;1.27;;;12.60;80.10;;;;;;4899067;29;20020;-79
2023/01/08 13:25:55;;;;;;;7.72;1.27;;;12.70;79.80;;;;;;4896492;29;20419;-79
2023/01/08 13:28:47;;;;;;;3.55;1.50;;;12.70;79.30;;;;;;4899405;29;20036;-80
2023/01/08 13:31:23;;;;;;;3.72;1.05;;;12.80;79.20;;;;;;4892193;29;20076;-79
2023/01/08 13:33:51;;;;;;;6.47;1.35;;;12.80;78.70;;;;;;4876072;29;20033;-79
2023/01/08 13:36:25;;;;;;;7.70;1.33;;;12.90;78.60;;;;;;4882628;29;20032;-79
2023/01/08 13:39:09;;;;;;;10.07;1.80;;;12.90;78.00;;;;;;4896452;29;20040;-79
2023/01/08 13:42:12;;;;;;;11.23;1.77;;;12.80;77.60;;;;;;4899325;29;20052;-79
2023/01/08 13:44:41;;;;;;;4.55;1.05;;;12.80;77.60;;;;;;4890286;29;20093;-79
2023/01/08 13:47:19;;;;;;;5.35;1.50;;;12.80;77.50;;;;;;4899878;29;20040;-79
2023/01/08 13:49:50;;;;;;;3.45;1.35;;;12.70;77.90;;;;;;4878407;29;20479;-79
2023/01/08 13:52:38;;;;;;;5.22;1.75;;;12.70;78.00;;;;;;4898135;29;20119;-79
2023/01/08 13:55:20;;;;;;;2.20;0.98;;;12.60;77.90;;;;;;4897216;29;20056;-79
2023/01/08 13:57:54;;;;;;;2.65;1.27;;;12.50;77.20;;;;;;4896379;29;20033;-77
2023/01/08 14:00:42;;;;;;;5.38;1.60;;;12.50;77.50;;;;;;4881116;29;20076;-79
2023/01/08 14:03:28;;;;;;;5.03;1.05;;;12.50;77.80;;;;;;4892905;29;20032;-79
2023/01/08 14:06:15;;;;;;;6.68;1.08;;;12.50;77.40;;;;;;4882771;29;20566;-79
2023/01/08 14:09:01;;;;;;;8.45;2.22;;;12.50;76.50;;;;;;4897709;29;20051;-79
2023/01/08 14:11:45;;;;;;;4.70;1.40;;;12.60;76.10;;;;;;4899552;29;20570;-78
2023/01/08 14:14:17;;;;;;;3.80;1.38;;;12.50;75.60;;;;;;4895347;29;20183;-79
2023/01/08 14:16:45;;;;;;;2.40;1.00;;;12.50;75.90;;;;;;4897077;29;20088;-79
2023/01/08 14:19:16;;;;;;;3.60;2.13;;;12.50;76.00;;;;;;4895251;29;20119;-78
2023/01/08 14:21:55;;;;;;;78.65;42.20;;;12.40;76.30;;;;;;4900274;29;20031;-80
2023/01/08 14:24:23;;;;;;;79.95;52.65;;;12.40;76.60;;;;;;4900196;29;20476;-78
2023/01/08 14:26:59;;;;;;;15.57;11.05;;;12.30;77.10;;;;;;4898765;29;20538;-79
2023/01/08 14:29:28;;;;;;;2.20;1.80;;;12.30;77.70;;;;;;4882003;29;20789;-77
2023/01/08 14:31:57;;;;;;;2.63;1.95;;;11.90;76.30;;;;;;4899113;29;20104;-77
2023/01/08 14:34:25;;;;;;;5.60;1.60;;;11.40;75.70;;;;;;4896233;29;20041;-79
2023/01/08 14:36:53;;;;;;;6.35;5.78;;;11.10;75.00;;;;;;4898939;29;20499;-78
2023/01/08 14:39:30;;;;;;;19.95;9.90;;;11.00;76.40;;;;;;4880989;29;20036;-78
2023/01/08 14:45:13;;;;;;;7.15;5.05;;;11.10;77.40;;;;;;4900339;29;20080;-80
2023/01/08 14:47:48;;;;;;;21.45;16.30;;;11.10;76.90;;;;;;4875088;29;20064;-79
2023/01/08 14:50:25;;;;;;;30.33;21.40;;;11.20;76.60;;;;;;4898851;29;20047;-79
2023/01/08 14:52:57;;;;;;;6.65;4.90;;;11.00;76.20;;;;;;4894780;29;20029;-79
2023/01/08 14:55:24;;;;;;;3.83;2.35;;;11.10;76.90;;;;;;4898177;29;20059;-78
2023/01/08 14:57:53;;;;;;;5.85;2.28;;;11.00;77.30;;;;;;4897196;29;20055;-78
2023/01/08 15:00:24;;;;;;;5.03;2.33;;;11.00;77.30;;;;;;4878594;29;20032;-78
2023/01/08 15:02:50;;;;;;;3.97;2.15;;;11.00;77.60;;;;;;4898081;29;20029;-78
2023/01/08 15:05:30;;;;;;;4.32;1.83;;;10.90;77.00;;;;;;4894294;29;20494;-78
2023/01/08 15:07:59;;;;;;;2.08;1.70;;;10.80;76.40;;;;;;4892392;29;20040;-78
2023/01/08 15:10:34;;;;;;;3.80;1.38;;;10.70;77.30;;;;;;4896157;29;20032;-78
2023/01/08 15:13:02;;;;;;;3.08;2.50;;;10.70;76.90;;;;;;4894636;29;20029;-78
2023/01/08 15:15:30;;;;;;;3.60;2.72;;;10.70;77.30;;;;;;4891985;29;20032;-78
2023/01/08 15:17:55;;;;;;;3.15;1.30;;;10.70;77.50;;;;;;4893893;29;20029;-78
2023/01/08 15:20:26;;;;;;;2.35;1.65;;;10.60;77.60;;;;;;4897308;29;20039;-77
2023/01/08 15:22:51;;;;;;;8.00;6.18;;;10.60;77.50;;;;;;4879777;29;20024;-77
2023/01/08 15:25:28;;;;;;;58.03;40.25;;;10.50;77.90;;;;;;4897158;29;20551;-77
2023/01/08 15:28:01;;;;;;;15.15;11.80;;;10.50;78.00;;;;;;4897300;29;20033;-78
2023/01/08 15:30:35;;;;;;;5.32;3.88;;;10.60;78.00;;;;;;4893858;29;20131;-78
2023/01/08 15:33:27;;;;;;;3.25;1.45;;;10.50;77.70;;;;;;4894649;29;20468;-77
2023/01/08 15:35:54;;;;;;;1.45;1.25;;;10.50;77.60;;;;;;4894244;29;20049;-78
2023/01/08 15:38:20;;;;;;;1.85;1.00;;;10.40;77.60;;;;;;4894245;29;20519;-78
2023/01/08 15:40:47;;;;;;;3.25;1.88;;;10.30;77.40;;;;;;4893795;29;20033;-78
2023/01/08 15:43:16;;;;;;;1.30;1.20;;;10.40;77.50;;;;;;4893701;29;20408;-77
2023/01/08 15:45:47;;;;;;;3.03;1.23;;;10.30;77.20;;;;;;4897274;29;20031;-77
2023/01/08 15:48:13;;;;;;;5.20;1.10;;;10.30;77.40;;;;;;4895927;29;20045;-77
2023/01/08 15:50:41;;;;;;;2.65;1.40;;;10.40;77.30;;;;;;4892393;29;20072;-77
2023/01/08 15:53:23;;;;;;;2.65;1.20;;;10.40;77.40;;;;;;4895279;29;20029;-78
2023/01/08 15:55:52;;;;;;;2.17;1.20;;;10.40;77.50;;;;;;4892512;29;20111;-77
2023/01/08 15:58:18;;;;;;;2.63;1.10;;;10.40;77.70;;;;;;4872909;29;20443;-77
2023/01/08 16:00:45;;;;;;;1.30;1.00;;;10.40;77.30;;;;;;4891341;29;20059;-80
2023/01/08 16:03:12;;;;;;;1.30;0.80;;;10.30;77.40;;;;;;4892419;29;20031;-77
2023/01/08 16:05:38;;;;;;;4.55;1.00;;;10.30;77.30;;;;;;4897059;29;20107;-77
2023/01/08 16:08:04;;;;;;;1.80;1.00;;;10.20;77.10;;;;;;4896465;29;20084;-77
2023/01/08 16:10:31;;;;;;;1.08;0.88;;;10.30;77.40;;;;;;4902747;29;20028;-76
2023/01/08 16:12:58;;;;;;;2.08;1.48;;;10.30;77.40;;;;;;4897033;29;20075;-78
2023/01/08 16:15:23;;;;;;;2.70;1.27;;;10.30;77.20;;;;;;4881012;29;20041;-74
2023/01/08 16:17:49;;;;;;;1.83;1.25;;;10.20;77.00;;;;;;4894402;29;20036;-75
2023/01/08 16:20:16;;;;;;;4.47;1.50;;;10.20;76.90;;;;;;4891439;29;20032;-73
2023/01/08 16:22:43;;;;;;;2.55;1.58;;;10.10;77.00;;;;;;4882213;29;20020;-75
2023/01/08 16:25:09;;;;;;;1.30;1.02;;;10.10;77.50;;;;;;4896746;29;20033;-74
2023/01/08 16:27:37;;;;;;;8.25;5.50;;;10.20;77.30;;;;;;4889788;29;20056;-74
2023/01/08 16:30:03;;;;;;;52.05;30.90;;;10.10;77.10;;;;;;4899156;29;20115;-74
2023/01/08 16:32:29;;;;;;;71.63;34.47;;;10.00;77.20;;;;;;4892489;29;20065;-74
2023/01/08 16:34:54;;;;;;;34.55;19.05;;;10.00;77.30;;;;;;4899021;29;20408;-74
2023/01/08 16:37:21;;;;;;;5.13;3.25;;;9.90;77.10;;;;;;4890829;29;20072;-74
2023/01/08 16:39:46;;;;;;;2.67;2.33;;;9.90;77.20;;;;;;4893009;29;20034;-74
2023/01/08 16:42:12;;;;;;;3.90;1.95;;;9.80;77.00;;;;;;4892581;29;20524;-74
2023/01/08 16:44:38;;;;;;;2.30;1.48;;;9.80;77.30;;;;;;4881453;29;20092;-74
2023/01/08 16:47:04;;;;;;;4.30;1.88;;;9.80;77.40;;;;;;4893992;29;20503;-74
2023/01/08 16:49:32;;;;;;;2.00;1.65;;;9.80;77.30;;;;;;4893198;29;20028;-74
2023/01/08 16:52:00;;;;;;;2.17;1.85;;;9.80;77.30;;;;;;4896060;29;20118;-74
2023/01/08 16:54:26;;;;;;;4.18;2.80;;;9.70;77.30;;;;;;4897178;29;20044;-74
2023/01/08 16:56:52;;;;;;;4.82;2.40;;;9.80;77.30;;;;;;4903123;29;20036;-74
2023/01/08 16:59:18;;;;;;;2.92;2.05;;;9.80;77.20;;;;;;4914151;29;20063;-74
2023/01/08 17:01:44;;;;;;;9.05;4.57;;;9.80;77.10;;;;;;4897004;29;20025;-74
2023/01/08 17:04:10;;;;;;;13.40;7.03;;;9.80;77.10;;;;;;4895415;29;20403;-73
2023/01/08 17:06:36;;;;;;;8.80;5.65;;;9.80;77.00;;;;;;4893100;29;20029;-74
2023/01/08 17:09:05;;;;;;;6.60;4.28;;;9.70;76.60;;;;;;4891985;29;20134;-73
2023/01/08 17:11:31;;;;;;;9.23;4.63;;;9.70;77.10;;;;;;4891869;29;20758;-73
2023/01/08 17:13:57;;;;;;;6.40;4.68;;;9.60;76.80;;;;;;4895886;29;20032;-73
2023/01/08 17:16:23;;;;;;;3.28;2.17;;;9.70;76.80;;;;;;4895479;29;20028;-73
2023/01/08 17:18:48;;;;;;;11.60;6.78;;;9.70;76.90;;;;;;4881216;29;20115;-73
2023/01/08 17:21:16;;;;;;;14.05;8.38;;;9.70;76.80;;;;;;4901737;29;20081;-74
2023/01/08 17:23:42;;;;;;;22.90;9.70;;;9.60;77.00;;;;;;4898173;29;20024;-77
2023/01/08 17:26:18;;;;;;;400.13;174.27;;;9.60;76.60;;;;;;4896790;29;20037;-78
2023/01/08 17:28:45;;;;;;;258.92;107.88;;;9.50;77.00;;;;;;4899441;29;20108;-77
2023/01/08 17:31:17;;;;;;;54.50;31.52;;;9.50;76.80;;;;;;4898581;29;20076;-79
2023/01/08 17:33:44;;;;;;;16.25;10.20;;;9.40;77.30;;;;;;4880292;29;20123;-80
2023/01/08 17:36:14;;;;;;;11.75;5.90;;;9.40;77.40;;;;;;4898875;29;20028;-77
2023/01/08 17:38:41;;;;;;;6.15;4.80;;;9.30;77.40;;;;;;4901361;29;20021;-76
2023/01/08 17:41:08;;;;;;;8.82;3.85;;;9.30;77.50;;;;;;4896863;29;20021;-74
2023/01/08 17:43:38;;;;;;;3.33;2.40;;;9.30;77.50;;;;;;4901202;29;20040;-77
2023/01/08 17:46:07;;;;;;;3.13;2.83;;;9.30;77.70;;;;;;4893348;29;20028;-79
2023/01/08 17:48:33;;;;;;;4.88;3.20;;;9.20;77.70;;;;;;4897729;29;20064;-77
2023/01/08 17:50:59;;;;;;;3.47;1.90;;;9.20;77.90;;;;;;4883130;29;20060;-78
2023/01/08 17:53:26;;;;;;;5.75;2.67;;;9.20;78.20;;;;;;4880902;29;20672;-76
2023/01/08 17:55:52;;;;;;;6.50;4.97;;;9.10;78.30;;;;;;4895403;29;20046;-79
2023/01/08 17:58:18;;;;;;;19.77;15.88;;;9.10;78.40;;;;;;4883609;29;20483;-81
2023/01/08 18:00:44;;;;;;;153.68;75.95;;;9.10;78.40;;;;;;4885426;29;20047;-78
2023/01/08 18:03:10;;;;;;;118.65;65.40;;;9.10;78.40;;;;;;4900805;29;20029;-79
2023/01/08 18:05:35;;;;;;;53.72;36.00;;;9.00;78.70;;;;;;4902204;29;20124;-79
2023/01/08 18:08:01;;;;;;;14.90;10.05;;;8.90;78.90;;;;;;4896392;29;20037;-84
2023/01/08 18:10:27;;;;;;;10.95;8.13;;;9.00;79.00;;;;;;4902102;29;20036;-85
2023/01/08 18:12:52;;;;;;;10.00;6.50;;;8.90;79.30;;;;;;4877368;29;20037;-76
2023/01/08 18:15:18;;;;;;;6.05;4.72;;;8.90;79.10;;;;;;4893562;29;20132;-89
2023/01/08 18:17:43;;;;;;;13.15;7.38;;;8.80;79.40;;;;;;4900590;29;20037;-76
2023/01/08 18:20:10;;;;;;;9.05;5.78;;;8.80;79.60;;;;;;4898787;29;20036;-79
2023/01/08 18:22:35;;;;;;;14.63;9.80;;;8.80;79.70;;;;;;4896769;29;20064;-77
2023/01/08 18:25:01;;;;;;;21.02;12.95;;;8.80;79.70;;;;;;4899286;29;20060;-77
2023/01/08 18:27:27;;;;;;;13.15;8.30;;;8.80;79.90;;;;;;4897297;29;20104;-78
2023/01/08 18:29:55;;;;;;;6.38;5.13;;;8.80;79.70;;;;;;4896156;29;20041;-78
2023/01/08 18:32:24;;;;;;;9.27;5.20;;;8.70;79.80;;;;;;4895350;29;20060;-78
2023/01/08 18:34:54;;;;;;;11.50;4.97;;;8.70;79.90;;;;;;4883237;29;20033;-76
2023/01/08 18:37:22;;;;;;;29.63;14.25;;;8.60;80.00;;;;;;4886662;29;20032;-78
2023/01/08 18:39:47;;;;;;;8.70;4.93;;;8.70;80.30;;;;;;4887112;29;20040;-83
2023/01/08 18:42:25;;;;;;;13.80;6.07;;;8.60;80.40;;;;;;4872794;29;20040;-78